Time;durP1;ratioP1;P1;durP2;ratioP2;P2;SDS_P1;SDS_P2;PMS_P1;PMS_P2;Temp;Humidity;BMP_temperature;BMP_pressure;BME280_temperature;BME280_humidity;BME280_pressure;Samples;Min_cycle;Max_cycle;Signal;HPM_P1;HPM_P2
2022/03/31 00:02:12;;;;;;;23.50;16.77;;;;;;;7.13;100.00;94928.19;5072749;28;20407;-71
2022/03/31 00:04:38;;;;;;;23.33;16.67;;;;;;;7.08;100.00;94928.91;5073733;28;20829;-71
2022/03/31 00:07:04;;;;;;;22.75;16.85;;;;;;;7.47;100.00;94931.22;5072573;28;20421;-71
2022/03/31 00:09:30;;;;;;;23.08;16.67;;;;;;;7.02;100.00;94931.75;5055080;28;20392;-71
2022/03/31 00:11:59;;;;;;;23.02;16.27;;;;;;;7.19;100.00;94932.34;5072874;28;20468;-71
2022/03/31 00:14:27;;;;;;;20.70;16.42;;;;;;;7.00;100.00;94924.16;5072491;28;20479;-71
2022/03/31 00:16:53;;;;;;;23.65;16.60;;;;;;;7.08;100.00;94917.69;5072738;28;20394;-71
2022/03/31 00:19:19;;;;;;;21.90;16.83;;;;;;;7.04;100.00;94914.81;5072467;28;20888;-70
2022/03/31 00:21:45;;;;;;;21.98;16.65;;;;;;;6.81;100.00;94915.16;5072993;28;20418;-70
2022/03/31 00:24:10;;;;;;;21.00;16.07;;;;;;;7.06;100.00;94907.53;5054342;28;20392;-71
2022/03/31 00:26:35;;;;;;;21.40;16.02;;;;;;;6.88;100.00;94910.53;5072399;28;20423;-71
2022/03/31 00:29:01;;;;;;;21.37;16.67;;;;;;;6.82;100.00;94908.94;5072627;28;20420;-70
2022/03/31 00:31:28;;;;;;;21.02;16.25;;;;;;;6.94;100.00;94900.94;5071988;28;20485;-71
2022/03/31 00:33:53;;;;;;;21.42;15.90;;;;;;;7.03;100.00;94900.22;5072607;28;20453;-70
2022/03/31 00:36:18;;;;;;;25.00;17.00;;;;;;;7.15;100.00;94899.25;5054376;28;20411;-71
2022/03/31 00:39:28;;;;;;;22.05;16.45;;;;;;;7.11;100.00;94891.16;5054387;28;20423;-71
2022/03/31 00:41:37;;;;;;;24.67;17.42;;;;;;;6.95;100.00;94892.09;5072032;28;20462;-70
2022/03/31 00:44:04;;;;;;;22.80;17.40;;;;;;;7.32;100.00;94881.63;5071427;28;20403;-71
2022/03/31 00:46:29;;;;;;;24.43;17.40;;;;;;;7.38;100.00;94881.41;5072070;28;20396;-70
2022/03/31 00:48:55;;;;;;;22.60;16.60;;;;;;;6.84;100.00;94872.22;5073614;28;20388;-72
2022/03/31 00:51:20;;;;;;;22.63;16.20;;;;;;;6.97;100.00;94880.38;5076513;28;20395;-71
2022/03/31 00:53:45;;;;;;;21.30;16.57;;;;;;;7.04;100.00;94867.94;5076357;28;20402;-71
2022/03/31 00:56:12;;;;;;;23.13;16.93;;;;;;;6.97;100.00;94863.97;5076423;28;20522;-70
2022/03/31 00:58:39;;;;;;;23.70;17.05;;;;;;;7.01;100.00;94865.84;5075789;28;20388;-72
2022/03/31 01:01:04;;;;;;;21.92;16.02;;;;;;;6.66;100.00;94863.78;5075652;28;20443;-71
2022/03/31 01:03:30;;;;;;;23.17;17.40;;;;;;;6.82;100.00;94863.88;5076015;28;20403;-71
2022/03/31 01:05:56;;;;;;;21.52;16.13;;;;;;;6.72;100.00;94866.41;5075897;28;20402;-71
2022/03/31 01:08:21;;;;;;;21.48;16.40;;;;;;;6.66;100.00;94862.97;5076150;28;20399;-70
2022/03/31 01:10:49;;;;;;;21.00;16.13;;;;;;;6.88;100.00;94866.28;5076203;28;20423;-72
2022/03/31 01:13:15;;;;;;;20.67;15.68;;;;;;;7.01;100.00;94860.63;5076171;28;20400;-71
2022/03/31 01:15:40;;;;;;;20.35;15.55;;;;;;;6.65;100.00;94861.41;5075352;28;20474;-69
2022/03/31 01:18:06;;;;;;;19.87;14.77;;;;;;;6.79;100.00;94867.00;5075409;28;20391;-71
2022/03/31 01:20:33;;;;;;;18.90;14.73;;;;;;;6.89;100.00;94851.44;5075288;28;20400;-71
2022/03/31 01:22:59;;;;;;;18.08;14.23;;;;;;;6.72;100.00;94854.19;5076151;28;20426;-70
2022/03/31 01:25:26;;;;;;;17.92;13.82;;;;;;;6.76;100.00;94846.66;5057625;28;20384;-70
2022/03/31 01:27:51;;;;;;;17.10;13.30;;;;;;;6.67;100.00;94848.94;5075752;28;20808;-70
2022/03/31 01:30:21;;;;;;;17.70;13.87;;;;;;;6.97;100.00;94845.72;5075596;28;20549;-71
2022/03/31 01:32:47;;;;;;;17.15;13.45;;;;;;;6.88;100.00;94848.03;5074229;28;20479;-71
2022/03/31 01:35:14;;;;;;;16.52;13.45;;;;;;;6.69;100.00;94837.22;5075632;28;20419;-71
2022/03/31 01:37:39;;;;;;;18.02;14.10;;;;;;;6.82;100.00;94838.63;5076012;28;20403;-70
2022/03/31 01:40:07;;;;;;;17.00;13.55;;;;;;;6.72;100.00;94835.97;5075257;28;20399;-70
2022/03/31 01:42:32;;;;;;;16.40;13.73;;;;;;;6.84;100.00;94836.56;5075187;28;20422;-70
2022/03/31 01:44:58;;;;;;;16.03;13.57;;;;;;;6.77;100.00;94832.59;5075131;28;20395;-70
2022/03/31 01:47:24;;;;;;;18.67;13.97;;;;;;;6.76;100.00;94825.81;5075230;28;20491;-70
2022/03/31 01:49:50;;;;;;;15.07;12.60;;;;;;;6.70;100.00;94825.00;5075160;28;20384;-72
2022/03/31 01:52:16;;;;;;;16.55;13.07;;;;;;;6.70;100.00;94830.19;5074849;28;20403;-71
2022/03/31 01:54:41;;;;;;;16.90;13.43;;;;;;;6.42;100.00;94814.91;5074657;28;20914;-71
2022/03/31 01:57:07;;;;;;;16.23;13.53;;;;;;;6.52;100.00;94817.59;5074584;28;20407;-70
2022/03/31 01:59:37;;;;;;;18.08;13.77;;;;;;;6.42;100.00;94813.09;5074546;28;20403;-70
2022/03/31 02:02:03;;;;;;;17.65;13.65;;;;;;;6.25;100.00;94805.41;5075035;28;20522;-70
2022/03/31 02:04:28;;;;;;;17.92;13.90;;;;;;;6.29;100.00;94810.13;5057254;28;20383;-70
2022/03/31 02:06:54;;;;;;;16.00;13.37;;;;;;;6.32;100.00;94805.22;5074688;28;20768;-71
2022/03/31 02:09:20;;;;;;;15.40;12.97;;;;;;;6.40;100.00;94803.97;5074604;28;20770;-69
2022/03/31 02:11:46;;;;;;;16.67;13.80;;;;;;;6.23;100.00;94797.09;5074077;28;20392;-70
2022/03/31 02:14:12;;;;;;;16.85;14.15;;;;;;;6.29;100.00;94795.31;5075227;28;20453;-71
2022/03/31 02:16:37;;;;;;;18.02;13.88;;;;;;;6.25;100.00;94792.41;5075026;28;20387;-71
2022/03/31 02:19:03;;;;;;;18.35;13.80;;;;;;;6.13;100.00;94793.63;5084977;28;20935;-72
2022/03/31 02:21:28;;;;;;;18.00;14.00;;;;;;;6.24;100.00;94796.03;5096042;28;20398;-73
2022/03/31 02:23:54;;;;;;;17.27;14.13;;;;;;;6.11;100.00;94795.69;5061534;28;20384;-73
2022/03/31 02:26:19;;;;;;;16.33;13.57;;;;;;;6.32;100.00;94789.59;5074838;28;20502;-73
2022/03/31 02:28:45;;;;;;;17.85;13.98;;;;;;;6.15;100.00;94784.53;5075093;28;20564;-73
2022/03/31 02:31:10;;;;;;;16.80;13.57;;;;;;;6.34;100.00;94786.75;5074167;28;20399;-72
2022/03/31 02:33:36;;;;;;;17.67;14.00;;;;;;;6.32;100.00;94784.41;5058042;28;20399;-72
2022/03/31 02:36:02;;;;;;;17.42;14.45;;;;;;;6.32;100.00;94779.19;5056505;28;20388;-70
2022/03/31 02:38:27;;;;;;;17.38;14.45;;;;;;;6.18;100.00;94780.66;5074112;28;20771;-70
2022/03/31 02:40:53;;;;;;;18.37;14.67;;;;;;;6.29;100.00;94774.50;5073950;28;20421;-71
2022/03/31 02:43:19;;;;;;;16.43;13.47;;;;;;;6.45;100.00;94778.78;5057507;28;20478;-71
2022/03/31 02:45:44;;;;;;;16.43;13.43;;;;;;;6.55;100.00;94780.66;5074149;28;20396;-71
2022/03/31 02:48:09;;;;;;;17.17;14.30;;;;;;;6.48;100.00;94780.88;5074200;28;20417;-71
2022/03/31 02:50:35;;;;;;;17.63;13.60;;;;;;;6.30;100.00;94770.84;5073912;28;20868;-71
2022/03/31 02:55:44;;;;;;;17.20;14.20;;;;;;;6.04;100.00;94764.66;5073349;28;20810;-70
2022/03/31 02:58:09;;;;;;;16.90;13.90;;;;;;;6.19;100.00;94764.00;5073970;28;20395;-70
2022/03/31 03:00:37;;;;;;;15.97;13.57;;;;;;;6.11;100.00;94764.47;5073648;28;20422;-70
2022/03/31 03:03:03;;;;;;;18.80;14.93;;;;;;;6.08;100.00;94757.16;5073544;28;20504;-72
2022/03/31 03:05:30;;;;;;;17.13;14.27;;;;;;;6.26;100.00;94756.78;5073775;28;20449;-70
2022/03/31 03:07:56;;;;;;;17.77;13.77;;;;;;;6.13;100.00;94763.16;5073223;28;20872;-71
2022/03/31 03:10:21;;;;;;;17.13;14.38;;;;;;;5.85;100.00;94755.66;5073839;28;20395;-70
2022/03/31 03:12:47;;;;;;;18.42;14.57;;;;;;;5.83;100.00;94753.28;5072861;28;20400;-71
2022/03/31 03:15:13;;;;;;;17.92;14.93;;;;;;;5.82;100.00;94753.53;5073541;28;20404;-72
2022/03/31 03:17:43;;;;;;;19.27;15.50;;;;;;;5.90;100.00;94752.34;5073773;28;20427;-71
2022/03/31 03:20:13;;;;;;;19.13;15.30;;;;;;;5.53;100.00;94753.00;5073201;28;20691;-70
2022/03/31 03:22:49;;;;;;;19.80;15.90;;;;;;;5.47;100.00;94753.19;5072988;28;20423;-71
2022/03/31 03:25:18;;;;;;;20.05;15.77;;;;;;;5.53;100.00;94749.59;5072223;28;20403;-72
2022/03/31 03:27:44;;;;;;;21.33;16.02;;;;;;;5.53;100.00;94749.59;5073322;28;20419;-70
2022/03/31 03:30:10;;;;;;;20.35;16.25;;;;;;;5.44;100.00;94742.25;5073028;28;20466;-71
2022/03/31 03:32:37;;;;;;;21.30;16.83;;;;;;;5.59;100.00;94740.84;5071368;28;20478;-72
2022/03/31 03:35:04;;;;;;;22.23;17.58;;;;;;;5.48;100.00;94742.53;5073269;28;20386;-71
2022/03/31 03:37:29;;;;;;;21.90;17.10;;;;;;;5.42;100.00;94739.13;5073431;28;20422;-72
2022/03/31 03:39:55;;;;;;;21.48;16.88;;;;;;;5.51;100.00;94733.50;5073191;28;20407;-72
2022/03/31 03:42:20;;;;;;;21.53;17.43;;;;;;;5.31;100.00;94734.06;5071680;28;20408;-70
2022/03/31 03:44:46;;;;;;;22.03;17.70;;;;;;;5.38;100.00;94730.25;5073812;28;20399;-72
2022/03/31 03:47:11;;;;;;;22.45;17.17;;;;;;;5.30;100.00;94732.47;5073415;28;20395;-71
2022/03/31 03:49:36;;;;;;;23.33;17.10;;;;;;;5.24;100.00;94734.25;5072722;28;20440;-70
2022/03/31 03:52:02;;;;;;;22.50;17.27;;;;;;;5.33;100.00;94742.41;5073086;28;20427;-71
2022/03/31 03:54:28;;;;;;;23.00;18.00;;;;;;;5.12;100.00;94738.81;5073460;28;20399;-71
2022/03/31 03:56:53;;;;;;;23.77;17.50;;;;;;;5.02;100.00;94739.44;5072991;28;20399;-71
2022/03/31 03:59:19;;;;;;;22.50;17.83;;;;;;;5.17;100.00;94740.66;5072747;28;20477;-71
2022/03/31 04:01:45;;;;;;;21.90;17.33;;;;;;;5.31;100.00;94734.06;5072432;28;20418;-71
2022/03/31 04:04:10;;;;;;;23.07;17.87;;;;;;;5.24;100.00;94730.88;5073057;28;20392;-71
2022/03/31 04:06:36;;;;;;;22.60;18.33;;;;;;;5.33;100.00;94737.22;5055261;28;20505;-72
2022/03/31 04:09:03;;;;;;;21.75;17.20;;;;;;;5.38;100.00;94734.66;5072699;28;20734;-72
2022/03/31 04:11:28;;;;;;;20.92;16.30;;;;;;;5.26;100.00;94727.00;5072911;28;20407;-71
2022/03/31 04:13:54;;;;;;;21.07;17.03;;;;;;;5.38;100.00;94722.47;5072464;28;20391;-72
2022/03/31 04:16:19;;;;;;;21.30;16.93;;;;;;;5.24;100.00;94728.28;5072721;28;20410;-72
2022/03/31 04:18:45;;;;;;;20.08;16.90;;;;;;;5.32;100.00;94726.03;5072313;28;20483;-72
2022/03/31 04:21:11;;;;;;;21.35;17.90;;;;;;;5.18;100.00;94727.44;5072748;28;20415;-71
2022/03/31 04:23:37;;;;;;;23.05;17.88;;;;;;;5.12;100.00;94723.22;5074502;28;20830;-70
2022/03/31 04:26:02;;;;;;;21.25;17.30;;;;;;;4.89;100.00;94726.06;5076958;28;20494;-70
2022/03/31 04:28:27;;;;;;;22.20;18.20;;;;;;;5.00;100.00;94725.16;5075971;28;20482;-71
2022/03/31 04:30:54;;;;;;;22.03;17.50;;;;;;;4.96;100.00;94730.03;5073974;28;20415;-71
2022/03/31 04:33:20;;;;;;;22.27;18.02;;;;;;;4.95;100.00;94725.09;5076179;28;20414;-71
2022/03/31 04:35:45;;;;;;;20.83;17.02;;;;;;;5.04;100.00;94718.44;5076371;28;20947;-70
2022/03/31 04:38:10;;;;;;;22.83;17.27;;;;;;;4.89;100.00;94711.28;5075968;28;20437;-71
2022/03/31 04:40:36;;;;;;;22.30;17.37;;;;;;;4.84;100.00;94723.41;5076103;28;20487;-70
2022/03/31 04:43:02;;;;;;;21.08;17.40;;;;;;;4.83;100.00;94716.66;5075292;28;20490;-70
2022/03/31 04:45:27;;;;;;;23.37;18.00;;;;;;;4.68;100.00;94716.47;5076311;28;20398;-71
2022/03/31 04:47:52;;;;;;;23.10;18.80;;;;;;;4.58;100.00;94717.88;5075804;28;20386;-72
2022/03/31 04:50:18;;;;;;;22.60;18.50;;;;;;;4.69;100.00;94718.81;5076456;28;20482;-72
2022/03/31 04:52:43;;;;;;;23.80;18.30;;;;;;;4.80;100.00;94710.13;5076538;28;20400;-72
2022/03/31 04:55:09;;;;;;;23.35;18.98;;;;;;;4.84;100.00;94720.81;5058441;28;20729;-72
2022/03/31 04:57:34;;;;;;;22.33;18.38;;;;;;;4.33;100.00;94725.34;5076923;28;20407;-72
2022/03/31 05:00:00;;;;;;;24.57;18.93;;;;;;;4.49;100.00;94721.13;5076183;28;20877;-71
2022/03/31 05:02:26;;;;;;;25.17;19.77;;;;;;;4.65;100.00;94717.72;5075433;28;20415;-71
2022/03/31 05:04:51;;;;;;;23.03;18.77;;;;;;;4.65;100.00;94724.72;5075462;28;20399;-71
2022/03/31 05:07:17;;;;;;;25.08;18.83;;;;;;;4.53;100.00;94715.22;5075422;28;20471;-71
2022/03/31 05:09:42;;;;;;;25.75;19.88;;;;;;;4.49;100.00;94719.34;5075196;28;20745;-70
2022/03/31 05:12:08;;;;;;;24.03;19.43;;;;;;;4.38;100.00;94725.41;5075046;28;20755;-69
2022/03/31 05:14:34;;;;;;;22.15;18.67;;;;;;;4.20;100.00;94720.47;5075399;28;20453;-70
2022/03/31 05:17:01;;;;;;;23.35;19.00;;;;;;;4.17;100.00;94716.56;5074659;28;20399;-70
2022/03/31 05:19:26;;;;;;;23.40;18.90;;;;;;;4.35;100.00;94720.69;5075695;28;20551;-70
2022/03/31 05:21:52;;;;;;;24.52;19.35;;;;;;;4.43;100.00;94709.13;5075306;28;20495;-70
2022/03/31 05:24:17;;;;;;;24.07;19.30;;;;;;;4.31;100.00;94711.81;5075311;28;20423;-71
2022/03/31 05:26:43;;;;;;;23.88;19.33;;;;;;;4.60;100.00;94718.44;5075913;28;20415;-70
2022/03/31 05:29:08;;;;;;;22.20;17.67;;;;;;;4.43;100.00;94719.50;5057821;28;20512;-69
2022/03/31 05:31:34;;;;;;;21.27;17.67;;;;;;;4.36;100.00;94718.88;5074422;28;20843;-70
2022/03/31 05:33:59;;;;;;;21.55;17.30;;;;;;;4.52;100.00;94712.88;5057099;28;20434;-71
2022/03/31 05:36:24;;;;;;;21.13;17.73;;;;;;;4.51;100.00;94722.47;5075398;28;20400;-71
2022/03/31 05:38:50;;;;;;;22.50;18.40;;;;;;;4.56;100.00;94717.34;5057899;28;20394;-70
2022/03/31 05:41:15;;;;;;;21.23;17.73;;;;;;;4.42;100.00;94715.34;5074907;28;20411;-70
2022/03/31 05:43:41;;;;;;;22.03;18.17;;;;;;;4.45;100.00;94714.88;5056676;28;20414;-71
2022/03/31 05:46:06;;;;;;;24.58;18.42;;;;;;;4.49;100.00;94708.97;5075354;28;20474;-70
2022/03/31 05:48:31;;;;;;;21.80;17.93;;;;;;;4.76;100.00;94708.25;5075009;28;20492;-71
2022/03/31 05:50:57;;;;;;;22.50;18.07;;;;;;;4.65;100.00;94712.53;5057042;28;21261;-71
2022/03/31 05:53:22;;;;;;;21.10;17.38;;;;;;;4.66;100.00;94715.91;5074694;28;20403;-71
2022/03/31 05:55:48;;;;;;;20.80;17.27;;;;;;;4.69;100.00;94713.63;5074950;28;20396;-71
2022/03/31 05:58:13;;;;;;;19.83;17.00;;;;;;;4.62;100.00;94714.81;5057811;28;20483;-71
2022/03/31 06:00:39;;;;;;;24.30;18.58;;;;;;;4.70;100.00;94714.41;5074551;28;20403;-72
2022/03/31 06:03:06;;;;;;;21.17;17.73;;;;;;;4.73;100.00;94722.50;5074876;28;20430;-72
2022/03/31 06:05:32;;;;;;;21.10;17.50;;;;;;;4.73;100.00;94709.53;5074087;28;20422;-72
2022/03/31 06:07:58;;;;;;;21.33;17.37;;;;;;;4.58;100.00;94714.50;5074720;28;20395;-71
2022/03/31 06:10:23;;;;;;;22.37;17.27;;;;;;;4.80;100.00;94706.72;5075015;28;20941;-70
2022/03/31 06:12:49;;;;;;;20.17;17.50;;;;;;;4.86;100.00;94714.34;5074158;28;20400;-70
2022/03/31 06:15:15;;;;;;;20.92;16.55;;;;;;;4.89;100.00;94715.69;5074364;28;20449;-70
2022/03/31 06:17:43;;;;;;;20.30;16.80;;;;;;;5.29;100.00;94718.75;5056966;28;20436;-70
2022/03/31 06:20:10;;;;;;;20.92;16.60;;;;;;;4.88;100.00;94716.69;5074127;28;20832;-70
2022/03/31 06:22:35;;;;;;;19.67;16.60;;;;;;;4.62;100.00;94718.22;5074178;28;21006;-70
2022/03/31 06:25:01;;;;;;;21.45;16.30;;;;;;;4.91;100.00;94711.81;5073931;28;20387;-69
2022/03/31 06:27:27;;;;;;;22.38;17.58;;;;;;;4.88;100.00;94720.09;5057307;28;20415;-71
2022/03/31 06:29:53;;;;;;;22.90;17.23;;;;;;;4.96;100.00;94716.25;5074463;28;20482;-70
2022/03/31 06:32:19;;;;;;;20.90;17.20;;;;;;;4.95;100.00;94709.53;5073166;28;20396;-72
2022/03/31 06:34:45;;;;;;;19.48;16.65;;;;;;;5.09;100.00;94709.94;5074419;28;20843;-72
2022/03/31 06:37:11;;;;;;;20.87;17.17;;;;;;;5.11;100.00;94719.06;5074930;28;20463;-73
2022/03/31 06:39:36;;;;;;;20.83;16.83;;;;;;;5.01;100.00;94716.34;5074789;28;20387;-71
2022/03/31 06:42:03;;;;;;;19.20;16.53;;;;;;;5.28;100.00;94708.59;5074450;28;20403;-72
2022/03/31 06:44:29;;;;;;;19.90;17.10;;;;;;;5.49;100.00;94709.56;5056119;28;20391;-72
2022/03/31 06:46:54;;;;;;;21.27;16.70;;;;;;;5.40;100.00;94712.63;5072720;28;20384;-72
2022/03/31 06:49:21;;;;;;;19.47;16.60;;;;;;;5.51;100.00;94710.13;5073753;28;21125;-70
2022/03/31 06:51:47;;;;;;;19.48;16.50;;;;;;;5.31;100.00;94711.47;5071813;28;20392;-70
2022/03/31 06:54:12;;;;;;;21.73;16.10;;;;;;;5.29;100.00;94710.16;5073317;28;20453;-71
2022/03/31 06:56:39;;;;;;;20.13;15.90;;;;;;;5.35;100.00;94712.53;5074207;28;20792;-71
2022/03/31 06:59:04;;;;;;;20.23;16.00;;;;;;;5.80;100.00;94712.19;5074017;28;20395;-70
2022/03/31 07:01:30;;;;;;;19.40;15.90;;;;;;;5.28;100.00;94708.59;5073278;28;20934;-71
2022/03/31 07:03:56;;;;;;;17.73;15.18;;;;;;;5.15;100.00;94709.75;5074436;28;20947;-74
2022/03/31 07:06:22;;;;;;;19.30;15.57;;;;;;;5.09;100.00;94717.72;5054661;28;20407;-75
2022/03/31 07:08:48;;;;;;;19.67;15.70;;;;;;;5.49;100.00;94702.56;5072087;28;20400;-71
2022/03/31 07:11:14;;;;;;;17.23;15.43;;;;;;;5.74;100.00;94702.75;5054570;28;20392;-71
2022/03/31 07:13:40;;;;;;;19.40;15.30;;;;;;;5.94;100.00;94696.22;5072383;28;20444;-71
2022/03/31 07:16:06;;;;;;;17.98;15.52;;;;;;;5.94;100.00;94691.78;5054154;28;20483;-72
2022/03/31 07:18:32;;;;;;;20.40;15.75;;;;;;;6.15;100.00;94700.50;5073425;28;20426;-72
2022/03/31 07:20:57;;;;;;;18.57;15.17;;;;;;;6.26;100.00;94696.94;5072175;28;20410;-71
2022/03/31 07:23:23;;;;;;;19.00;15.13;;;;;;;6.22;100.00;94699.28;5053147;28;20395;-72
2022/03/31 07:25:49;;;;;;;18.83;15.50;;;;;;;6.28;99.65;94694.09;5071259;28;20466;-72
2022/03/31 07:28:15;;;;;;;19.65;15.73;;;;;;;6.09;100.00;94698.91;5071314;28;20392;-72
2022/03/31 07:30:41;;;;;;;17.10;14.90;;;;;;;6.19;100.00;94691.16;5070589;28;20391;-71
2022/03/31 07:33:08;;;;;;;18.87;15.10;;;;;;;6.41;99.46;94691.06;5071385;28;21183;-71
2022/03/31 07:35:37;;;;;;;18.00;15.80;;;;;;;6.15;100.00;94684.91;5071569;28;20467;-71
2022/03/31 07:38:07;;;;;;;17.90;14.88;;;;;;;6.57;100.00;94685.69;5053272;28;20435;-71
2022/03/31 07:40:33;;;;;;;19.70;15.57;;;;;;;6.65;98.36;94680.00;5055783;28;20395;-72
2022/03/31 07:42:59;;;;;;;16.70;14.57;;;;;;;6.00;100.00;94685.59;5071228;28;20411;-72
2022/03/31 07:45:25;;;;;;;19.67;15.23;;;;;;;6.26;100.00;94679.53;5071627;28;20390;-71
2022/03/31 07:47:50;;;;;;;19.07;15.70;;;;;;;6.75;100.00;94686.28;5053611;28;20961;-71
2022/03/31 07:50:18;;;;;;;18.63;14.80;;;;;;;6.38;99.66;94687.13;5071099;28;20388;-72
2022/03/31 07:52:44;;;;;;;18.23;15.20;;;;;;;6.71;98.20;94687.81;5053195;28;20396;-72
2022/03/31 07:55:12;;;;;;;16.83;14.93;;;;;;;6.35;98.86;94690.25;5071465;28;20478;-72
2022/03/31 07:57:38;;;;;;;19.57;15.57;;;;;;;6.24;100.00;94684.19;5053771;28;20847;-71
2022/03/31 08:00:06;;;;;;;20.40;15.50;;;;;;;6.18;100.00;94690.41;5075806;28;20441;-72
2022/03/31 08:02:31;;;;;;;20.70;15.65;;;;;;;6.11;100.00;94689.06;5075679;28;20403;-72
2022/03/31 08:04:56;;;;;;;18.00;15.63;;;;;;;5.98;100.00;94687.66;5074489;28;20392;-72
2022/03/31 08:07:22;;;;;;;20.00;16.50;;;;;;;6.05;100.00;94685.63;5075615;28;20836;-72
2022/03/31 08:09:47;;;;;;;19.70;16.33;;;;;;;6.26;99.31;94684.72;5074937;28;20462;-73
2022/03/31 08:12:13;;;;;;;19.77;15.53;;;;;;;6.15;100.00;94692.72;5075732;28;20399;-72
2022/03/31 08:14:38;;;;;;;21.83;16.40;;;;;;;6.23;100.00;94693.03;5074952;28;20856;-72
2022/03/31 08:17:04;;;;;;;21.80;16.20;;;;;;;6.22;100.00;94685.47;5057427;28;20495;-71
2022/03/31 08:19:32;;;;;;;20.02;15.98;;;;;;;6.14;100.00;94688.53;5075019;28;20383;-72
2022/03/31 08:22:00;;;;;;;19.15;15.63;;;;;;;6.18;100.00;94692.22;5075153;28;20403;-71
2022/03/31 08:24:26;;;;;;;18.57;15.67;;;;;;;6.47;100.00;94688.22;5074593;28;20503;-72
2022/03/31 08:26:51;;;;;;;19.10;15.67;;;;;;;6.74;98.94;94685.50;5074391;28;20947;-72
2022/03/31 08:29:18;;;;;;;20.60;15.77;;;;;;;6.54;98.76;94683.59;5074546;28;20391;-72
2022/03/31 08:31:43;;;;;;;21.88;16.10;;;;;;;6.48;99.77;94684.59;5045694;28;20399;-71
2022/03/31 08:34:09;;;;;;;20.63;16.52;;;;;;;6.02;100.00;94680.16;5074937;28;20760;-71
2022/03/31 08:36:36;;;;;;;22.77;17.55;;;;;;;6.33;100.00;94683.72;5074915;28;20872;-71
2022/03/31 08:39:04;;;;;;;20.80;16.73;;;;;;;6.44;100.00;94678.31;5074406;28;20399;-71
2022/03/31 08:41:30;;;;;;;20.58;15.57;;;;;;;6.48;100.00;94676.00;5074580;28;20399;-72
2022/03/31 08:43:56;;;;;;;21.13;16.40;;;;;;;6.87;97.67;94674.63;5073793;28;20740;-72
2022/03/31 08:46:26;;;;;;;20.25;16.48;;;;;;;6.91;97.89;94678.25;5074800;28;20396;-72
2022/03/31 08:48:52;;;;;;;19.95;15.57;;;;;;;6.59;98.53;94678.41;5055633;28;20396;-71
2022/03/31 08:51:17;;;;;;;22.52;16.88;;;;;;;6.50;100.00;94671.34;5073565;28;20394;-72
2022/03/31 08:53:43;;;;;;;21.40;16.37;;;;;;;6.89;98.52;94669.16;5073854;28;20892;-72
2022/03/31 08:56:10;;;;;;;19.43;16.40;;;;;;;7.07;97.22;94664.28;5073803;28;20392;-72
2022/03/31 08:58:35;;;;;;;21.02;16.77;;;;;;;7.01;97.71;94662.69;5073973;28;20864;-72
2022/03/31 09:01:01;;;;;;;20.65;16.58;;;;;;;7.39;95.48;94668.50;5074173;28;20483;-72
2022/03/31 09:03:33;;;;;;;19.47;16.00;;;;;;;7.59;93.11;94665.91;5074171;28;20391;-72
2022/03/31 09:05:59;;;;;;;18.90;15.88;;;;;;;7.01;96.58;94667.91;5074264;28;20379;-72
2022/03/31 09:08:24;;;;;;;21.60;16.40;;;;;;;6.83;97.51;94663.16;5056265;28;20404;-72
2022/03/31 09:10:54;;;;;;;21.00;16.10;;;;;;;7.42;95.78;94657.56;5072521;28;20380;-72
2022/03/31 09:13:25;;;;;;;22.55;17.15;;;;;;;7.10;95.76;94661.16;5074678;28;20388;-72
2022/03/31 09:16:02;;;;;;;21.15;16.48;;;;;;;7.46;94.59;94659.41;5074331;28;20449;-72
2022/03/31 09:18:30;;;;;;;21.53;17.00;;;;;;;7.08;95.69;94660.63;5074313;28;20921;-72
2022/03/31 09:20:58;;;;;;;22.98;16.70;;;;;;;7.40;94.92;94664.88;5073829;28;20380;-72
2022/03/31 09:23:39;;;;;;;20.35;16.67;;;;;;;7.42;94.76;94658.34;5074038;28;20387;-72
2022/03/31 09:26:11;;;;;;;21.42;16.27;;;;;;;7.71;92.98;94660.44;5061260;28;20418;-72
2022/03/31 09:28:37;;;;;;;21.33;16.38;;;;;;;7.63;93.76;94661.78;5073015;28;20410;-72
2022/03/31 09:31:04;;;;;;;21.03;16.50;;;;;;;7.62;93.71;94655.00;5071980;28;20456;-73
2022/03/31 09:33:31;;;;;;;19.85;16.35;;;;;;;8.20;92.22;94658.84;5073860;28;20395;-72
2022/03/31 09:35:57;;;;;;;20.83;16.55;;;;;;;8.16;89.88;94657.03;5055653;28;20387;-72
2022/03/31 09:38:23;;;;;;;18.35;15.80;;;;;;;8.37;89.83;94657.81;5073885;28;20392;-72
2022/03/31 09:40:48;;;;;;;20.57;16.10;;;;;;;8.15;88.90;94651.03;5073567;28;20403;-72
2022/03/31 09:43:14;;;;;;;20.90;16.58;;;;;;;8.23;89.57;94652.34;5054869;28;20418;-72
2022/03/31 09:45:40;;;;;;;23.33;16.70;;;;;;;8.26;90.13;94647.38;5074172;28;20392;-73
2022/03/31 09:48:23;;;;;;;20.90;16.58;;;;;;;8.62;87.28;94644.69;5054905;28;20402;-72
2022/03/31 09:50:50;;;;;;;19.90;15.90;;;;;;;8.51;87.76;94646.56;5040299;28;20720;-72
2022/03/31 09:53:16;;;;;;;20.35;15.95;;;;;;;8.82;87.38;94643.81;5073384;28;20425;-72
2022/03/31 09:55:47;;;;;;;19.38;15.13;;;;;;;9.26;85.29;94638.63;5055201;28;20431;-72
2022/03/31 09:58:20;;;;;;;21.13;16.10;;;;;;;9.49;83.80;94635.34;5054890;28;20911;-72
2022/03/31 10:00:47;;;;;;;19.00;15.40;;;;;;;9.42;82.70;94634.88;5073237;28;20392;-73
2022/03/31 10:03:17;;;;;;;21.33;16.48;;;;;;;9.09;84.35;94639.00;5073736;28;20469;-72
2022/03/31 10:05:45;;;;;;;19.92;15.73;;;;;;;8.97;85.18;94630.72;5073183;28;20399;-72
2022/03/31 10:08:11;;;;;;;20.45;15.95;;;;;;;8.90;86.15;94631.00;5055415;28;20399;-72
2022/03/31 10:10:38;;;;;;;19.83;15.70;;;;;;;8.79;86.66;94629.47;5072116;28;20400;-72
2022/03/31 10:13:22;;;;;;;21.63;16.30;;;;;;;9.34;83.97;94627.63;5073247;28;20411;-72
2022/03/31 10:15:56;;;;;;;19.73;15.93;;;;;;;9.29;82.87;94623.22;5072943;28;20391;-72
2022/03/31 10:18:21;;;;;;;18.95;16.02;;;;;;;9.53;82.57;94625.91;5073205;28;20392;-72
2022/03/31 10:20:56;;;;;;;19.77;16.17;;;;;;;9.26;83.80;94631.56;5055390;28;20414;-71
2022/03/31 10:26:06;;;;;;;19.73;15.50;;;;;;;9.08;86.15;94624.38;5072815;28;20438;-72
2022/03/31 10:28:32;;;;;;;20.98;15.30;;;;;;;9.25;85.11;94619.56;5072076;28;20880;-72
2022/03/31 10:31:07;;;;;;;20.63;16.30;;;;;;;9.85;83.28;94617.56;5060202;28;20441;-72
2022/03/31 10:33:38;;;;;;;21.10;15.25;;;;;;;9.99;81.04;94619.25;5072703;28;20392;-73
2022/03/31 10:36:12;;;;;;;19.58;15.43;;;;;;;10.01;80.43;94622.38;5072430;28;20477;-72
2022/03/31 10:38:50;;;;;;;20.27;15.90;;;;;;;9.94;81.67;94626.38;5072829;28;20403;-71
2022/03/31 10:41:16;;;;;;;21.77;16.00;;;;;;;9.94;81.45;94618.53;5071709;28;20567;-72
2022/03/31 10:43:47;;;;;;;24.90;16.90;;;;;;;9.87;82.28;94620.66;5071854;28;20468;-72
2022/03/31 10:46:20;;;;;;;23.85;17.33;;;;;;;9.98;82.26;94619.53;5072495;28;20756;-72
2022/03/31 10:48:58;;;;;;;20.67;15.18;;;;;;;9.98;81.33;94614.28;5072254;28;20855;-73
2022/03/31 10:51:37;;;;;;;22.17;15.98;;;;;;;9.64;81.65;94618.78;5072138;28;20424;-72
2022/03/31 10:54:05;;;;;;;19.92;15.63;;;;;;;9.85;82.60;94614.94;5072074;28;20486;-72
2022/03/31 10:56:32;;;;;;;19.17;15.23;;;;;;;9.93;82.92;94619.56;5071690;28;20404;-72
2022/03/31 10:59:00;;;;;;;20.70;16.35;;;;;;;10.13;82.49;94616.00;5072043;28;20422;-72
2022/03/31 11:01:53;;;;;;;22.42;16.75;;;;;;;10.08;80.97;94616.06;5071588;28;20879;-71
2022/03/31 11:04:19;;;;;;;23.60;17.45;;;;;;;10.21;81.30;94610.19;5051429;28;20410;-72
2022/03/31 11:06:51;;;;;;;21.90;16.95;;;;;;;9.87;82.40;94610.19;5072492;28;20404;-72
2022/03/31 11:09:31;;;;;;;23.02;16.70;;;;;;;10.08;81.45;94614.22;5072704;28;20399;-72
2022/03/31 11:11:59;;;;;;;19.90;16.35;;;;;;;9.75;82.16;94607.94;5072546;28;20404;-72
2022/03/31 11:14:25;;;;;;;21.08;16.38;;;;;;;10.04;81.51;94607.97;5039613;28;20396;-72
2022/03/31 11:16:50;;;;;;;21.98;17.05;;;;;;;10.01;81.60;94611.91;5073383;28;20395;-71
2022/03/31 11:19:19;;;;;;;20.53;16.03;;;;;;;10.14;81.61;94613.09;5072087;28;20845;-71
2022/03/31 11:21:44;;;;;;;20.30;16.33;;;;;;;9.86;82.59;94606.81;5071598;28;20415;-71
2022/03/31 11:24:10;;;;;;;20.27;16.10;;;;;;;10.03;82.00;94606.38;5071051;28;20418;-72